Jackson Hole Airport
KJAC : now visible

Airfield :











YOU CAN JOIN US ON...

 
LOGIN :

Register | Disclaimer

   EN    FR    IT 

 









Legend :    VFR   Marginal VFR   IFR   Intensive IFR   Very Intensive IFR
Visi :
Ceiling :
>= 8 km
>= 3000ft
5 to 8 km
1000 to 3000 ft
1500m to 5 km
500 to 1000 ft
800 to 1500m
200 to 500 ft
< 800m
< 200 ft
Symbols :   Thunderstorms  Fog  Heavy snow  Heavy precipitations  Wind > 20 kt






- Airport Elevation : 6451 ft
- IATA code : JAC


KJAC - Jackson Hole

CURRENT METAR :
  • 130307Z AUTO 02013KT 10SM CLR M01/M07 A3010 RMK AO2 WSHFT 0247 FZRANO

EXPIRED METARs :
  • 130256Z AUTO 02011KT 10SM CLR M01/M08 A3010 RMK AO2 SLP234 T10061078 53008 FZRANO
  • 130156Z 06008KT 10SM SCT085 01/M08 A3008 RMK AO2 SLP230 T00061078
  • 130056Z 03007KT 10SM FEW070 BKN090 02/M09 A3008 RMK AO2 SLP233 T00221089

TAF KJAC
Valid from the 13 at 00:00 until the 14 at 00:00 UTC


122320Z 1300/1324 02008KT P6SM BKN050
FM130300 02012G20KT P6SM BKN060
FM131800 07012G18KT P6SM SCT100
KZLC FIR / North America



MET'MAP, your aeronautical weather chart ! - Copyright ORBIFLY December 2007 - Disclaimer

ORBIFLY MET'MAP TEAM :

Programming & Development : Alexandra Zaïnal
Concept & original design : Baudouin d'Aumeries
Assistance for programming : Marc-Olivier Méhu
Technical & hardware support : Manuel Goepfert

Contact : metmap@orbifly.com




SOURCES & CREDITS :

   NOAA       Earth
Advisory